Time;durP1;ratioP1;P1;durP2;ratioP2;P2;SDS_P1;SDS_P2;PMS_P1;PMS_P2;Temp;Humidity;BMP_temperature;BMP_pressure;BME280_temperature;BME280_humidity;BME280_pressure;Samples;Min_cycle;Max_cycle;Signal;HPM_P1;HPM_P2
2023/03/26 00:01:12;;;;;;;8.60;3.40;;;;;;;;;;4973651;28;20188;-78
2023/03/26 00:03:39;;;;;;;6.60;2.13;;;;;;;;;;4973771;28;20347;-78
2023/03/26 00:06:06;;;;;;;6.87;2.07;;;;;;;;;;4980011;28;20250;-78
2023/03/26 00:08:32;;;;;;;7.63;2.23;;;;;;;;;;4973020;28;20198;-78
2023/03/26 00:10:57;;;;;;;8.17;2.00;;;;;;;;;;4972110;28;20186;-78
2023/03/26 00:13:22;;;;;;;6.00;1.90;;;;;;;;;;4988784;28;20183;-78
2023/03/26 00:15:48;;;;;;;8.67;2.03;;;;;;;;;;4974591;28;20190;-78
2023/03/26 00:18:13;;;;;;;7.60;2.07;;;;;;;;;;4978961;28;20178;-78
2023/03/26 00:20:40;;;;;;;7.50;2.00;;;;;;;;;;4989560;28;20177;-78
2023/03/26 00:23:08;;;;;;;3.13;1.63;;;;;;;;;;4973073;28;20235;-78
2023/03/26 00:25:37;;;;;;;7.77;2.37;;;;;;;;;;4990220;28;20179;-78
2023/03/26 00:28:02;;;;;;;4.43;2.00;;;;;;;;;;4973183;28;20182;-78
2023/03/26 00:30:27;;;;;;;9.83;1.83;;;;;;;;;;4976680;28;20179;-78
2023/03/26 00:32:53;;;;;;;4.90;2.00;;;;;;;;;;4973704;28;20237;-78
2023/03/26 00:35:18;;;;;;;8.80;1.93;;;;;;;;;;4974128;28;20179;-78
2023/03/26 00:37:44;;;;;;;3.20;1.70;;;;;;;;;;4970888;28;20184;-78
2023/03/26 00:40:10;;;;;;;5.40;1.80;;;;;;;;;;4970917;28;20258;-78
2023/03/26 00:42:36;;;;;;;4.40;2.00;;;;;;;;;;4979432;28;20291;-78
2023/03/26 00:45:06;;;;;;;7.27;2.13;;;;;;;;;;4992187;28;20196;-78
2023/03/26 00:47:31;;;;;;;4.00;1.90;;;;;;;;;;4997835;28;20180;-78
2023/03/26 00:49:57;;;;;;;5.27;2.43;;;;;;;;;;4976905;28;20188;-78
2023/03/26 00:52:22;;;;;;;4.23;1.63;;;;;;;;;;4975175;28;20337;-78
2023/03/26 00:54:50;;;;;;;8.60;1.93;;;;;;;;;;4974111;28;20178;-78
2023/03/26 00:57:16;;;;;;;4.53;1.73;;;;;;;;;;4970637;28;20207;-78
2023/03/26 00:59:42;;;;;;;7.70;2.00;;;;;;;;;;4991048;28;20176;-78
2023/03/26 01:02:10;;;;;;;4.77;2.50;;;;;;;;;;4976690;28;20172;-78
2023/03/26 01:04:36;;;;;;;4.50;1.67;;;;;;;;;;4990480;28;20219;-78
2023/03/26 01:07:09;;;;;;;7.10;2.03;;;;;;;;;;4983179;28;20179;-78
2023/03/26 01:09:36;;;;;;;5.63;1.93;;;;;;;;;;4974009;28;20180;-78
2023/03/26 01:12:03;;;;;;;9.07;2.10;;;;;;;;;;4973102;28;20184;-78
2023/03/26 01:14:28;;;;;;;4.40;1.60;;;;;;;;;;4992811;28;20184;-78
2023/03/26 01:17:01;;;;;;;7.07;1.80;;;;;;;;;;4993721;28;20183;-78
2023/03/26 01:19:32;;;;;;;2.87;1.70;;;;;;;;;;4983077;28;20198;-78
2023/03/26 01:21:58;;;;;;;4.63;1.87;;;;;;;;;;4986316;28;20183;-78
2023/03/26 01:24:23;;;;;;;7.93;1.73;;;;;;;;;;4973425;28;20246;-78
2023/03/26 01:27:08;;;;;;;5.47;1.40;;;;;;;;;;4975708;28;20175;-78
2023/03/26 01:29:52;;;;;;;2.70;1.40;;;;;;;;;;4990174;28;20203;-78
2023/03/26 01:32:21;;;;;;;3.20;1.57;;;;;;;;;;4975294;28;20237;-78
2023/03/26 01:35:05;;;;;;;4.87;2.10;;;;;;;;;;4975372;28;20331;-78
2023/03/26 01:37:42;;;;;;;4.90;1.70;;;;;;;;;;4988877;28;20271;-78
2023/03/26 01:40:13;;;;;;;4.80;1.70;;;;;;;;;;4973737;28;20185;-78
2023/03/26 01:42:42;;;;;;;3.83;1.70;;;;;;;;;;4974476;28;20218;-78
2023/03/26 01:45:13;;;;;;;2.77;1.83;;;;;;;;;;4934788;28;1161754;-78
2023/03/26 01:47:39;;;;;;;8.43;2.13;;;;;;;;;;4994086;28;20190;-78
2023/03/26 01:50:05;;;;;;;6.60;1.70;;;;;;;;;;4993789;28;20242;-78
2023/03/26 01:52:31;;;;;;;5.67;1.60;;;;;;;;;;4975715;28;20188;-78
2023/03/26 01:54:56;;;;;;;3.27;1.57;;;;;;;;;;4992683;28;20203;-78
2023/03/26 01:57:38;;;;;;;3.50;1.80;;;;;;;;;;4981207;28;20203;-78
2023/03/26 02:00:10;;;;;;;6.40;2.00;;;;;;;;;;4991711;28;20187;-79
2023/03/26 02:02:37;;;;;;;7.30;1.90;;;;;;;;;;4993440;28;20229;-78
2023/03/26 02:05:19;;;;;;;4.77;1.90;;;;;;;;;;4991739;28;20238;-78
2023/03/26 02:08:04;;;;;;;1.77;1.50;;;;;;;;;;4976278;28;20226;-78
2023/03/26 02:10:32;;;;;;;7.77;1.80;;;;;;;;;;4988173;28;20207;-78
2023/03/26 02:12:57;;;;;;;3.47;1.67;;;;;;;;;;4992347;28;20215;-78
2023/03/26 02:15:23;;;;;;;3.77;1.70;;;;;;;;;;4981752;28;20187;-78
2023/03/26 02:17:48;;;;;;;5.80;1.70;;;;;;;;;;4974757;28;20291;-78
2023/03/26 02:20:14;;;;;;;2.60;1.93;;;;;;;;;;4974847;28;20197;-78
2023/03/26 02:22:44;;;;;;;3.90;1.93;;;;;;;;;;4991253;28;20211;-78
2023/03/26 02:25:14;;;;;;;4.93;1.87;;;;;;;;;;4977553;28;20186;-78
2023/03/26 02:27:41;;;;;;;2.77;1.80;;;;;;;;;;4976241;28;20184;-78
2023/03/26 02:30:07;;;;;;;4.20;2.00;;;;;;;;;;4971020;28;20185;-78
2023/03/26 02:32:33;;;;;;;2.87;1.90;;;;;;;;;;4981816;28;20168;-78
2023/03/26 02:34:59;;;;;;;2.93;2.37;;;;;;;;;;4974235;28;20247;-78
2023/03/26 02:37:24;;;;;;;5.67;2.37;;;;;;;;;;4975512;28;20187;-78
2023/03/26 02:39:50;;;;;;;5.27;2.00;;;;;;;;;;4976361;28;20198;-78
2023/03/26 02:42:15;;;;;;;5.27;1.93;;;;;;;;;;4974753;28;20237;-78
2023/03/26 02:44:40;;;;;;;3.33;1.67;;;;;;;;;;4975099;28;20236;-78
2023/03/26 02:47:05;;;;;;;3.17;1.93;;;;;;;;;;4972670;28;20219;-78
2023/03/26 02:49:32;;;;;;;5.83;2.57;;;;;;;;;;4993473;28;20173;-78
2023/03/26 02:51:58;;;;;;;3.80;2.33;;;;;;;;;;4973851;28;20186;-78
2023/03/26 02:54:23;;;;;;;4.73;2.00;;;;;;;;;;4976828;28;20178;-78
2023/03/26 02:56:48;;;;;;;4.30;2.23;;;;;;;;;;4991214;28;20241;-78
2023/03/26 02:59:17;;;;;;;4.60;2.00;;;;;;;;;;4976048;28;20254;-78
2023/03/26 03:01:45;;;;;;;5.07;1.90;;;;;;;;;;4979453;28;20594;-78
2023/03/26 03:04:10;;;;;;;2.73;1.87;;;;;;;;;;4985711;28;20200;-78
2023/03/26 03:06:37;;;;;;;5.87;2.30;;;;;;;;;;4979764;28;20327;-78
2023/03/26 03:09:03;;;;;;;5.77;2.00;;;;;;;;;;4975944;28;20177;-78
2023/03/26 03:11:29;;;;;;;3.97;2.00;;;;;;;;;;4976649;28;20179;-78
2023/03/26 03:13:54;;;;;;;3.87;2.20;;;;;;;;;;4977101;28;20187;-78
2023/03/26 03:16:19;;;;;;;2.90;1.83;;;;;;;;;;4974618;28;20183;-78
2023/03/26 03:18:46;;;;;;;6.67;1.97;;;;;;;;;;4975684;28;20192;-78
2023/03/26 03:21:11;;;;;;;5.20;2.00;;;;;;;;;;4983328;28;20263;-78
2023/03/26 03:23:36;;;;;;;6.60;2.10;;;;;;;;;;4974886;28;20287;-78
2023/03/26 03:26:02;;;;;;;3.73;2.60;;;;;;;;;;4971350;28;20181;-78
2023/03/26 03:28:27;;;;;;;7.03;2.40;;;;;;;;;;4974840;28;20172;-78
2023/03/26 03:30:52;;;;;;;6.17;2.30;;;;;;;;;;4973485;28;20215;-78
2023/03/26 03:33:19;;;;;;;5.23;2.17;;;;;;;;;;4973549;28;20178;-78
2023/03/26 03:35:45;;;;;;;4.30;2.37;;;;;;;;;;4990991;28;20179;-78
2023/03/26 03:38:10;;;;;;;4.70;2.63;;;;;;;;;;4978697;28;20230;-78
2023/03/26 03:40:35;;;;;;;3.87;1.97;;;;;;;;;;4973923;28;20194;-78
2023/03/26 03:43:00;;;;;;;4.23;2.20;;;;;;;;;;4972511;28;20211;-78
2023/03/26 03:45:26;;;;;;;4.03;1.80;;;;;;;;;;4990861;28;20226;-78
2023/03/26 03:47:51;;;;;;;4.57;1.83;;;;;;;;;;4992489;28;20221;-78
2023/03/26 03:50:17;;;;;;;5.50;2.40;;;;;;;;;;4989931;28;20213;-78
2023/03/26 03:52:42;;;;;;;5.40;2.47;;;;;;;;;;4982165;28;20241;-78
2023/03/26 03:55:09;;;;;;;2.73;1.90;;;;;;;;;;4988652;28;20184;-78
2023/03/26 03:57:34;;;;;;;5.03;1.70;;;;;;;;;;4991016;28;20186;-78
2023/03/26 04:00:00;;;;;;;1.73;1.60;;;;;;;;;;4996047;28;20176;-78
2023/03/26 04:02:29;;;;;;;6.20;2.03;;;;;;;;;;4974026;28;20194;-78
2023/03/26 04:04:56;;;;;;;7.10;2.43;;;;;;;;;;4972372;28;20257;-78
2023/03/26 04:07:21;;;;;;;3.30;2.10;;;;;;;;;;4976511;28;20274;-78
2023/03/26 04:09:47;;;;;;;4.77;2.20;;;;;;;;;;4971158;28;20318;-78
2023/03/26 04:12:12;;;;;;;9.83;2.70;;;;;;;;;;4974599;28;20202;-78
2023/03/26 04:14:37;;;;;;;7.33;2.43;;;;;;;;;;4973704;28;20281;-78
2023/03/26 04:17:04;;;;;;;7.50;2.50;;;;;;;;;;4973979;28;20257;-78
2023/03/26 04:19:29;;;;;;;4.53;2.50;;;;;;;;;;4974561;28;20188;-78
2023/03/26 04:21:54;;;;;;;8.03;2.07;;;;;;;;;;4974489;28;20224;-78
2023/03/26 04:24:21;;;;;;;5.83;2.13;;;;;;;;;;4972629;28;20207;-78
2023/03/26 04:26:48;;;;;;;6.03;2.37;;;;;;;;;;4972772;28;20186;-78
2023/03/26 04:29:17;;;;;;;4.43;2.20;;;;;;;;;;4981425;28;20172;-78
2023/03/26 04:31:42;;;;;;;4.67;1.97;;;;;;;;;;4973470;28;20259;-78
2023/03/26 04:34:13;;;;;;;5.60;2.07;;;;;;;;;;4970677;28;20282;-78
2023/03/26 04:36:39;;;;;;;5.87;2.43;;;;;;;;;;4974343;28;20275;-78
2023/03/26 04:39:05;;;;;;;7.20;2.43;;;;;;;;;;4974044;28;20175;-78
2023/03/26 04:41:31;;;;;;;4.50;2.57;;;;;;;;;;4990652;28;20211;-78
2023/03/26 04:43:56;;;;;;;4.80;2.80;;;;;;;;;;4972743;28;20234;-78
2023/03/26 04:46:22;;;;;;;7.23;2.03;;;;;;;;;;4974208;28;20259;-78
2023/03/26 04:48:50;;;;;;;7.60;2.53;;;;;;;;;;4972002;28;20180;-78
2023/03/26 04:51:20;;;;;;;6.53;2.70;;;;;;;;;;4968235;28;20236;-78
2023/03/26 04:53:57;;;;;;;7.70;2.20;;;;;;;;;;4969176;28;20289;-78
2023/03/26 04:56:36;;;;;;;9.00;3.33;;;;;;;;;;4969267;28;20276;-78
2023/03/26 04:59:02;;;;;;;4.03;2.13;;;;;;;;;;4972920;28;20189;-78
2023/03/26 05:01:27;;;;;;;3.20;2.20;;;;;;;;;;4970155;28;20188;-78
2023/03/26 05:03:53;;;;;;;8.93;2.30;;;;;;;;;;4969767;28;20200;-78
2023/03/26 05:06:18;;;;;;;8.70;3.93;;;;;;;;;;4974126;28;20170;-78
2023/03/26 05:08:43;;;;;;;8.53;2.00;;;;;;;;;;4966159;28;20229;-78
2023/03/26 05:11:10;;;;;;;4.97;2.10;;;;;;;;;;4970195;28;20180;-78
2023/03/26 05:13:35;;;;;;;8.93;2.40;;;;;;;;;;4969269;28;20187;-78
2023/03/26 05:16:00;;;;;;;8.53;2.50;;;;;;;;;;4970968;28;20191;-78
2023/03/26 05:18:25;;;;;;;5.57;2.00;;;;;;;;;;4970725;28;20177;-78
2023/03/26 05:20:51;;;;;;;5.60;1.70;;;;;;;;;;4967057;28;20272;-78
2023/03/26 05:23:16;;;;;;;6.37;2.37;;;;;;;;;;4969494;28;20205;-78
2023/03/26 05:25:41;;;;;;;3.37;1.70;;;;;;;;;;4966844;28;20181;-78
2023/03/26 05:28:08;;;;;;;1.97;1.40;;;;;;;;;;4971936;28;20196;-78
2023/03/26 05:30:33;;;;;;;6.07;1.80;;;;;;;;;;4970543;28;20184;-78
2023/03/26 05:32:58;;;;;;;5.23;1.80;;;;;;;;;;4974050;28;20280;-78
2023/03/26 05:35:24;;;;;;;4.47;1.77;;;;;;;;;;4973923;28;20192;-78
2023/03/26 05:37:50;;;;;;;4.30;1.80;;;;;;;;;;4974065;28;20191;-78
2023/03/26 05:40:15;;;;;;;6.10;2.07;;;;;;;;;;4972176;28;20184;-78
2023/03/26 05:42:41;;;;;;;3.93;2.00;;;;;;;;;;4971387;28;20214;-78
2023/03/26 05:45:07;;;;;;;4.63;1.90;;;;;;;;;;4972521;28;20190;-78
2023/03/26 05:47:32;;;;;;;6.50;3.47;;;;;;;;;;4982076;28;20215;-78
2023/03/26 05:49:58;;;;;;;9.30;6.80;;;;;;;;;;4997507;28;20199;-78
2023/03/26 05:52:23;;;;;;;4.50;2.17;;;;;;;;;;4993977;28;20201;-78
2023/03/26 05:54:48;;;;;;;4.40;2.30;;;;;;;;;;4977665;28;20179;-78
2023/03/26 05:57:13;;;;;;;6.37;2.80;;;;;;;;;;4976401;28;20187;-78
2023/03/26 05:59:41;;;;;;;7.20;2.53;;;;;;;;;;4977947;28;20249;-78
2023/03/26 06:02:08;;;;;;;2.63;1.50;;;;;;;;;;4978657;28;20175;-78
2023/03/26 06:04:33;;;;;;;8.70;3.43;;;;;;;;;;4981291;28;20295;-78
2023/03/26 06:06:58;;;;;;;7.13;3.07;;;;;;;;;;4977081;28;20262;-78
2023/03/26 06:09:24;;;;;;;6.80;4.53;;;;;;;;;;4976303;28;20258;-78
2023/03/26 06:11:49;;;;;;;3.20;2.37;;;;;;;;;;4976630;28;20176;-78
2023/03/26 06:14:15;;;;;;;7.73;2.77;;;;;;;;;;4977422;28;20176;-78
2023/03/26 06:16:40;;;;;;;3.17;1.93;;;;;;;;;;4971593;28;20186;-78
2023/03/26 06:19:05;;;;;;;3.50;1.80;;;;;;;;;;4985430;28;20202;-78
2023/03/26 06:21:30;;;;;;;6.50;2.40;;;;;;;;;;4978361;28;20180;-78
2023/03/26 06:23:56;;;;;;;7.10;4.57;;;;;;;;;;4976134;28;20220;-78
2023/03/26 06:26:21;;;;;;;4.63;2.60;;;;;;;;;;4976214;28;20179;-78
2023/03/26 06:28:46;;;;;;;13.10;3.70;;;;;;;;;;4978563;28;20271;-78
2023/03/26 06:31:11;;;;;;;11.27;4.80;;;;;;;;;;4975768;28;20183;-78
2023/03/26 06:33:37;;;;;;;5.17;2.40;;;;;;;;;;4974367;28;20179;-77
2023/03/26 06:36:02;;;;;;;4.80;2.60;;;;;;;;;;4975032;28;20275;-78
2023/03/26 06:38:27;;;;;;;4.57;2.67;;;;;;;;;;4974701;28;20183;-78
2023/03/26 06:40:53;;;;;;;13.83;6.97;;;;;;;;;;4976212;28;20187;-78
2023/03/26 06:43:18;;;;;;;8.60;4.83;;;;;;;;;;4975342;28;20225;-78
2023/03/26 06:45:43;;;;;;;11.40;5.87;;;;;;;;;;4967281;28;20265;-77
2023/03/26 06:48:09;;;;;;;13.30;8.90;;;;;;;;;;4970714;28;20184;-78
2023/03/26 06:50:34;;;;;;;14.23;8.57;;;;;;;;;;4972675;28;20187;-78
2023/03/26 06:52:59;;;;;;;13.60;7.27;;;;;;;;;;4970457;28;20192;-77
2023/03/26 06:55:25;;;;;;;7.93;6.30;;;;;;;;;;4970297;28;20198;-78
2023/03/26 06:57:51;;;;;;;4.63;2.97;;;;;;;;;;4971943;28;20184;-78
2023/03/26 07:00:16;;;;;;;6.37;2.53;;;;;;;;;;4972184;28;20180;-78
2023/03/26 07:02:42;;;;;;;19.03;3.63;;;;;;;;;;4970470;28;20212;-78
2023/03/26 07:05:07;;;;;;;4.60;2.80;;;;;;;;;;4968342;28;20181;-78
2023/03/26 07:07:33;;;;;;;5.00;3.40;;;;;;;;;;4973605;28;20181;-78
2023/03/26 07:09:58;;;;;;;6.90;3.13;;;;;;;;;;4971308;28;20195;-78
2023/03/26 07:12:24;;;;;;;5.30;2.37;;;;;;;;;;4972337;28;20189;-78
2023/03/26 07:14:49;;;;;;;9.20;2.90;;;;;;;;;;4971199;28;20219;-78
2023/03/26 07:17:15;;;;;;;6.77;2.77;;;;;;;;;;4972402;28;20320;-78
2023/03/26 07:19:40;;;;;;;6.10;2.63;;;;;;;;;;4972699;28;20183;-78
2023/03/26 07:22:05;;;;;;;8.00;4.93;;;;;;;;;;4971388;28;20263;-78
2023/03/26 07:24:31;;;;;;;5.43;4.10;;;;;;;;;;4976596;28;20218;-78
2023/03/26 07:26:59;;;;;;;5.83;3.40;;;;;;;;;;4971458;28;20271;-78
2023/03/26 07:29:42;;;;;;;9.03;3.77;;;;;;;;;;4970886;28;20203;-78
2023/03/26 07:32:14;;;;;;;4.67;3.03;;;;;;;;;;4971113;28;20180;-78
2023/03/26 07:34:42;;;;;;;7.90;5.63;;;;;;;;;;4970797;28;20191;-78
2023/03/26 07:37:26;;;;;;;6.17;3.33;;;;;;;;;;4977916;28;20180;-78
2023/03/26 07:40:03;;;;;;;7.10;2.93;;;;;;;;;;4966434;28;20180;-78
2023/03/26 07:42:47;;;;;;;7.13;3.10;;;;;;;;;;4967359;28;20220;-78
2023/03/26 07:45:17;;;;;;;8.47;3.17;;;;;;;;;;4973374;28;20206;-78
2023/03/26 07:47:43;;;;;;;6.10;3.23;;;;;;;;;;4974813;28;20224;-78
2023/03/26 07:50:13;;;;;;;6.70;3.43;;;;;;;;;;4974094;28;20199;-78
2023/03/26 07:52:38;;;;;;;8.07;3.10;;;;;;;;;;4972602;28;20188;-78
2023/03/26 07:55:04;;;;;;;5.27;2.50;;;;;;;;;;4974351;28;20242;-78
2023/03/26 07:57:48;;;;;;;7.53;2.43;;;;;;;;;;4973686;28;20182;-78
2023/03/26 08:00:16;;;;;;;4.83;2.30;;;;;;;;;;4985369;28;20186;-78
2023/03/26 08:02:58;;;;;;;4.23;3.03;;;;;;;;;;4990727;28;20230;-78
2023/03/26 08:05:32;;;;;;;8.60;2.93;;;;;;;;;;4991256;28;20176;-78
2023/03/26 08:08:12;;;;;;;6.40;2.90;;;;;;;;;;4976691;28;20194;-78
2023/03/26 08:10:38;;;;;;;9.23;3.00;;;;;;;;;;4979679;28;20211;-78
2023/03/26 08:13:16;;;;;;;6.83;2.50;;;;;;;;;;4974250;28;20180;-78
2023/03/26 08:15:52;;;;;;;7.23;3.00;;;;;;;;;;4969077;28;20179;-78
2023/03/26 08:18:37;;;;;;;4.80;2.90;;;;;;;;;;4972222;28;20218;-78
2023/03/26 08:21:06;;;;;;;5.73;2.80;;;;;;;;;;4974082;28;20188;-78
2023/03/26 08:23:57;;;;;;;10.17;2.80;;;;;;;;;;4974048;28;20290;-78
2023/03/26 08:26:23;;;;;;;4.47;3.50;;;;;;;;;;4973144;28;20188;-78
2023/03/26 08:29:02;;;;;;;5.40;3.13;;;;;;;;;;4974895;28;20188;-78
2023/03/26 08:31:42;;;;;;;8.17;3.13;;;;;;;;;;4987394;28;20200;-78
2023/03/26 08:34:11;;;;;;;5.40;3.10;;;;;;;;;;4976077;28;20233;-78
2023/03/26 08:36:37;;;;;;;4.83;3.10;;;;;;;;;;4974198;28;20184;-78
2023/03/26 08:39:02;;;;;;;5.47;3.70;;;;;;;;;;4993494;28;20199;-78
2023/03/26 08:41:38;;;;;;;4.53;2.77;;;;;;;;;;4974378;28;20279;-78
2023/03/26 08:44:22;;;;;;;7.23;5.17;;;;;;;;;;4973584;28;20199;-78
2023/03/26 08:46:50;;;;;;;4.67;2.73;;;;;;;;;;4969293;28;20236;-78
2023/03/26 08:49:34;;;;;;;5.00;3.17;;;;;;;;;;4971001;28;20189;-78
2023/03/26 08:52:12;;;;;;;3.90;2.20;;;;;;;;;;4965414;28;20181;-78
2023/03/26 08:54:45;;;;;;;6.43;2.87;;;;;;;;;;4971336;28;20243;-78
2023/03/26 08:57:36;;;;;;;4.77;3.13;;;;;;;;;;4969519;28;20239;-78
2023/03/26 09:00:25;;;;;;;2.90;2.33;;;;;;;;;;4968207;28;20188;-78
2023/03/26 09:03:09;;;;;;;4.20;3.83;;;;;;;;;;4972741;28;20182;-78
2023/03/26 09:05:47;;;;;;;5.87;5.27;;;;;;;;;;4969588;28;20180;-78
2023/03/26 09:08:23;;;;;;;4.90;4.10;;;;;;;;;;4964091;28;20283;-78
2023/03/26 09:10:58;;;;;;;3.40;2.10;;;;;;;;;;4969469;28;20223;-78
2023/03/26 09:13:48;;;;;;;2.33;1.43;;;;;;;;;;4970783;28;20180;-78
2023/03/26 09:16:14;;;;;;;2.20;1.30;;;;;;;;;;4973709;28;20300;-78
2023/03/26 09:18:53;;;;;;;1.83;1.57;;;;;;;;;;4973362;28;20189;-78
2023/03/26 09:21:37;;;;;;;2.27;1.33;;;;;;;;;;4973713;28;20211;-78
2023/03/26 09:24:08;;;;;;;1.93;1.73;;;;;;;;;;4970259;28;20193;-78
2023/03/26 09:26:56;;;;;;;2.00;1.57;;;;;;;;;;4974405;28;20176;-78
2023/03/26 09:29:39;;;;;;;3.23;2.30;;;;;;;;;;4973267;28;20228;-78
2023/03/26 09:32:08;;;;;;;2.77;1.60;;;;;;;;;;4985499;28;20207;-78
2023/03/26 09:34:45;;;;;;;4.20;2.17;;;;;;;;;;4971593;28;20184;-78
2023/03/26 09:37:17;;;;;;;2.03;1.60;;;;;;;;;;4985597;28;20198;-78
2023/03/26 09:39:42;;;;;;;2.93;1.50;;;;;;;;;;4975078;28;20184;-79
2023/03/26 09:42:08;;;;;;;1.20;1.10;;;;;;;;;;4969575;28;20197;-78
2023/03/26 09:44:52;;;;;;;2.60;1.50;;;;;;;;;;4971725;28;20304;-78
2023/03/26 09:47:40;;;;;;;3.00;2.10;;;;;;;;;;4972976;28;20254;-79
2023/03/26 09:50:15;;;;;;;4.50;2.40;;;;;;;;;;4960982;28;20267;-78
2023/03/26 09:52:49;;;;;;;3.57;1.67;;;;;;;;;;4970915;28;20192;-78
2023/03/26 09:55:14;;;;;;;1.70;1.30;;;;;;;;;;4985790;28;20277;-78
2023/03/26 09:57:57;;;;;;;1.63;1.27;;;;;;;;;;4968538;28;20265;-79
2023/03/26 10:00:25;;;;;;;3.33;1.20;;;;;;;;;;4976028;28;20176;-79
2023/03/26 10:02:58;;;;;;;1.63;1.20;;;;;;;;;;4971708;28;20169;-79
2023/03/26 10:05:29;;;;;;;3.00;1.33;;;;;;;;;;4971971;28;20263;-79
2023/03/26 10:08:03;;;;;;;3.30;1.40;;;;;;;;;;4972446;28;20184;-79
2023/03/26 10:10:28;;;;;;;1.50;1.27;;;;;;;;;;4977105;28;20201;-79
2023/03/26 10:13:04;;;;;;;2.87;1.60;;;;;;;;;;4972232;28;20182;-79
2023/03/26 10:15:45;;;;;;;3.10;1.40;;;;;;;;;;4970198;28;20243;-79
2023/03/26 10:18:16;;;;;;;5.27;1.30;;;;;;;;;;4978382;28;20178;-79
2023/03/26 10:20:41;;;;;;;1.53;1.37;;;;;;;;;;4973786;28;20175;-79
2023/03/26 10:23:14;;;;;;;2.33;1.37;;;;;;;;;;4972283;28;20293;-79
2023/03/26 10:25:49;;;;;;;1.80;1.53;;;;;;;;;;4970767;28;20185;-79
2023/03/26 10:28:28;;;;;;;1.30;1.20;;;;;;;;;;4971990;28;20180;-79
2023/03/26 10:31:04;;;;;;;2.97;1.80;;;;;;;;;;4969066;28;20229;-79
2023/03/26 10:33:42;;;;;;;1.90;1.10;;;;;;;;;;4971191;28;20185;-79
2023/03/26 10:36:13;;;;;;;1.63;1.30;;;;;;;;;;4969519;28;20184;-79
2023/03/26 10:38:57;;;;;;;2.10;1.47;;;;;;;;;;4971402;28;20189;-79
2023/03/26 10:41:43;;;;;;;1.67;1.13;;;;;;;;;;4970845;28;20191;-79
2023/03/26 10:44:24;;;;;;;1.33;1.23;;;;;;;;;;4972095;28;20213;-79
2023/03/26 10:46:49;;;;;;;2.83;1.67;;;;;;;;;;4969310;28;20232;-79
2023/03/26 10:49:26;;;;;;;2.47;1.30;;;;;;;;;;4969976;28;20231;-79
2023/03/26 10:52:00;;;;;;;3.90;1.33;;;;;;;;;;4968786;28;20177;-79
2023/03/26 10:54:29;;;;;;;1.50;1.00;;;;;;;;;;4965243;28;20242;-79
2023/03/26 10:56:55;;;;;;;3.70;1.43;;;;;;;;;;4972998;28;20181;-79
2023/03/26 10:59:20;;;;;;;1.83;0.97;;;;;;;;;;4969640;28;20181;-79
2023/03/26 11:01:51;;;;;;;1.87;1.13;;;;;;;;;;4972210;28;20177;-79
2023/03/26 11:04:22;;;;;;;1.50;1.30;;;;;;;;;;4969861;28;20252;-79
2023/03/26 11:06:58;;;;;;;6.33;1.77;;;;;;;;;;4966760;28;20223;-79
2023/03/26 11:09:38;;;;;;;1.43;1.00;;;;;;;;;;4973021;28;20209;-79
2023/03/26 11:12:09;;;;;;;1.40;1.30;;;;;;;;;;4967521;28;20187;-79
2023/03/26 11:14:45;;;;;;;2.33;1.50;;;;;;;;;;4967195;28;20181;-79
2023/03/26 11:17:28;;;;;;;2.10;1.20;;;;;;;;;;4971435;28;20189;-79
2023/03/26 11:20:00;;;;;;;2.03;1.60;;;;;;;;;;4970397;28;20194;-80
2023/03/26 11:22:38;;;;;;;1.37;0.90;;;;;;;;;;4967100;28;20286;-79
2023/03/26 11:25:10;;;;;;;1.43;1.20;;;;;;;;;;4969358;28;20202;-80
2023/03/26 11:27:35;;;;;;;1.80;1.10;;;;;;;;;;4963516;28;20253;-80
2023/03/26 11:30:20;;;;;;;2.40;1.13;;;;;;;;;;4975705;28;20169;-80
2023/03/26 11:32:47;;;;;;;4.57;4.17;;;;;;;;;;4967560;28;20273;-79
2023/03/26 11:35:16;;;;;;;3.10;2.50;;;;;;;;;;4969600;28;20209;-80
2023/03/26 11:37:42;;;;;;;2.30;2.07;;;;;;;;;;4971304;28;20181;-80
2023/03/26 11:40:20;;;;;;;5.50;1.87;;;;;;;;;;4972122;28;20190;-80
2023/03/26 11:42:46;;;;;;;3.17;2.00;;;;;;;;;;4968936;28;20198;-79
2023/03/26 11:45:20;;;;;;;4.63;3.10;;;;;;;;;;4971926;28;20173;-80
2023/03/26 11:47:50;;;;;;;4.57;4.17;;;;;;;;;;4988751;28;20183;-80
2023/03/26 11:50:19;;;;;;;2.07;1.73;;;;;;;;;;4970318;28;20187;-80
2023/03/26 11:52:45;;;;;;;2.73;1.63;;;;;;;;;;4974558;28;20179;-79
2023/03/26 11:55:11;;;;;;;2.83;1.57;;;;;;;;;;4976830;28;20183;-80
2023/03/26 11:57:41;;;;;;;3.93;1.67;;;;;;;;;;4967216;28;20182;-79
2023/03/26 12:00:15;;;;;;;3.00;1.37;;;;;;;;;;4976005;28;20179;-80
2023/03/26 12:02:40;;;;;;;3.87;1.60;;;;;;;;;;4987056;28;20184;-80
2023/03/26 12:05:12;;;;;;;5.57;3.97;;;;;;;;;;4987537;28;20202;-80
2023/03/26 12:07:44;;;;;;;8.00;4.47;;;;;;;;;;4974077;28;20181;-80
2023/03/26 12:10:20;;;;;;;3.73;2.50;;;;;;;;;;4972343;28;20181;-80
2023/03/26 12:12:46;;;;;;;1.93;1.40;;;;;;;;;;4986050;28;20172;-80
2023/03/26 12:15:12;;;;;;;2.90;1.67;;;;;;;;;;4970582;28;20213;-80
2023/03/26 12:17:39;;;;;;;3.47;1.50;;;;;;;;;;4973619;28;20192;-80
2023/03/26 12:20:26;;;;;;;5.27;2.00;;;;;;;;;;4967714;28;20257;-80
2023/03/26 12:22:52;;;;;;;3.47;1.40;;;;;;;;;;4973605;28;20181;-80
2023/03/26 12:25:19;;;;;;;1.30;1.20;;;;;;;;;;4972981;28;20206;-80
2023/03/26 12:27:49;;;;;;;3.97;1.33;;;;;;;;;;4975042;28;20178;-80
2023/03/26 12:30:25;;;;;;;1.73;1.30;;;;;;;;;;4972765;28;20182;-80
2023/03/26 12:32:52;;;;;;;4.10;2.03;;;;;;;;;;4977022;28;20205;-80
2023/03/26 12:35:26;;;;;;;2.03;1.07;;;;;;;;;;4989444;28;20182;-80
2023/03/26 12:38:12;;;;;;;3.50;1.90;;;;;;;;;;4982775;28;20201;-80
2023/03/26 12:40:38;;;;;;;1.67;1.20;;;;;;;;;;4981300;28;20178;-80
2023/03/26 12:43:18;;;;;;;2.20;1.20;;;;;;;;;;4976699;28;20202;-80
2023/03/26 12:45:46;;;;;;;1.93;1.00;;;;;;;;;;4976212;28;20242;-80
2023/03/26 12:48:14;;;;;;;1.73;1.37;;;;;;;;;;4971798;28;20185;-80
2023/03/26 12:50:45;;;;;;;3.93;1.40;;;;;;;;;;4973996;28;20182;-80
2023/03/26 12:53:17;;;;;;;1.93;1.07;;;;;;;;;;4992609;28;20181;-80
2023/03/26 12:55:59;;;;;;;1.07;0.73;;;;;;;;;;4970578;28;20179;-80
2023/03/26 12:58:33;;;;;;;1.70;0.90;;;;;;;;;;4971247;28;20182;-80
2023/03/26 13:01:26;;;;;;;2.07;1.03;;;;;;;;;;4972695;28;20229;-80
2023/03/26 13:03:57;;;;;;;2.90;1.43;;;;;;;;;;4973223;28;20203;-80
2023/03/26 13:06:28;;;;;;;2.43;1.10;;;;;;;;;;4982051;28;20187;-80
2023/03/26 13:09:02;;;;;;;1.87;1.00;;;;;;;;;;4975036;28;20255;-80
2023/03/26 13:11:44;;;;;;;1.10;1.00;;;;;;;;;;4975074;28;20189;-81
2023/03/26 13:14:15;;;;;;;2.67;1.10;;;;;;;;;;4989697;28;20212;-80
2023/03/26 13:17:19;;;;;;;2.03;1.00;;;;;;;;;;4973605;28;20206;-81
2023/03/26 13:19:48;;;;;;;2.43;0.80;;;;;;;;;;4930377;29;20196;-81
2023/03/26 13:22:23;;;;;;;2.67;1.27;;;;;;;;;;4921400;29;20209;-74
2023/03/26 13:24:48;;;;;;;2.47;0.90;;;;;;;;;;4928809;29;20225;-74
2023/03/26 13:27:25;;;;;;;2.60;1.10;;;;;;;;;;4932106;29;20190;-74
2023/03/26 13:30:10;;;;;;;1.20;0.90;;;;;;;;;;4917498;29;20290;-73
2023/03/26 13:32:35;;;;;;;4.13;2.00;;;;;;;;;;4923628;29;20364;-79
2023/03/26 13:35:09;;;;;;;2.53;1.07;;;;;;;;;;4917758;29;20265;-79
2023/03/26 13:37:48;;;;;;;1.97;1.00;;;;;;;;;;4918349;29;20193;-79
2023/03/26 13:40:16;;;;;;;3.10;1.10;;;;;;;;;;4931466;29;20262;-79
2023/03/26 13:43:00;;;;;;;2.27;1.10;;;;;;;;;;4916527;29;20313;-79
2023/03/26 13:45:25;;;;;;;2.17;0.90;;;;;;;;;;4916662;29;20288;-79
2023/03/26 13:47:53;;;;;;;2.00;1.57;;;;;;;;;;4917151;29;20193;-80
2023/03/26 13:50:27;;;;;;;2.40;1.57;;;;;;;;;;4956065;28;20251;-79
2023/03/26 13:53:00;;;;;;;3.07;1.37;;;;;;;;;;4971599;28;20185;-79
2023/03/26 13:55:36;;;;;;;2.37;1.20;;;;;;;;;;4972780;28;20200;-79
2023/03/26 13:58:07;;;;;;;3.27;1.10;;;;;;;;;;4970391;28;20188;-80
2023/03/26 14:00:54;;;;;;;2.20;0.90;;;;;;;;;;4968413;28;20192;-80
2023/03/26 14:03:38;;;;;;;2.93;1.20;;;;;;;;;;4971684;28;20211;-80
2023/03/26 14:06:07;;;;;;;1.00;0.90;;;;;;;;;;4970946;28;20189;-79
2023/03/26 14:08:42;;;;;;;1.87;1.00;;;;;;;;;;4973684;28;20214;-79
2023/03/26 14:11:10;;;;;;;2.97;1.37;;;;;;;;;;4971139;28;20191;-80
2023/03/26 14:13:40;;;;;;;1.27;0.80;;;;;;;;;;4971438;28;20283;-79
2023/03/26 14:16:08;;;;;;;1.93;0.90;;;;;;;;;;4978227;28;20279;-80
2023/03/26 14:18:50;;;;;;;5.97;1.40;;;;;;;;;;4963896;28;20284;-80
2023/03/26 14:21:28;;;;;;;1.77;1.17;;;;;;;;;;4972127;28;20189;-79
2023/03/26 14:24:21;;;;;;;1.57;1.10;;;;;;;;;;4968371;28;20215;-79
2023/03/26 14:27:05;;;;;;;3.87;1.37;;;;;;;;;;4980126;28;20270;-80
2023/03/26 14:29:40;;;;;;;1.57;0.80;;;;;;;;;;4983727;28;20289;-79
2023/03/26 14:32:15;;;;;;;1.53;1.10;;;;;;;;;;4973031;28;20200;-78
2023/03/26 14:34:49;;;;;;;1.53;1.17;;;;;;;;;;4987399;28;20190;-78
2023/03/26 14:37:15;;;;;;;4.60;3.23;;;;;;;;;;4972131;28;20185;-78
2023/03/26 14:39:46;;;;;;;0.73;0.60;;;;;;;;;;4972610;28;20190;-78
2023/03/26 14:42:37;;;;;;;0.43;0.40;;;;;;;;;;4971219;28;20346;-78
2023/03/26 14:45:12;;;;;;;1.90;0.93;;;;;;;;;;4942581;28;20225;-78
2023/03/26 14:47:45;;;;;;;1.20;1.00;;;;;;;;;;4968626;28;20231;-78
2023/03/26 14:50:30;;;;;;;0.33;0.33;;;;;;;;;;4971134;28;20194;-78
2023/03/26 14:52:58;;;;;;;0.63;0.63;;;;;;;;;;4967033;28;20188;-78
2023/03/26 14:55:43;;;;;;;0.30;0.30;;;;;;;;;;4972923;28;20191;-78
2023/03/26 14:58:09;;;;;;;0.30;0.30;;;;;;;;;;4978773;28;20185;-78
2023/03/26 15:00:37;;;;;;;0.40;0.40;;;;;;;;;;4970160;28;20190;-78
2023/03/26 15:03:12;;;;;;;0.60;0.60;;;;;;;;;;4971369;28;20190;-78